Time;durP1;ratioP1;P1;durP2;ratioP2;P2;SDS_P1;SDS_P2;PMS_P1;PMS_P2;Temp;Humidity;BMP_temperature;BMP_pressure;BME280_temperature;BME280_humidity;BME280_pressure;Samples;Min_cycle;Max_cycle;Signal;HPM_P1;HPM_P2
2023/03/04 00:01:40;;;;;;;28.13;17.35;;;8.10;99.90;;;;;;5113886;28;20024;-46
2023/03/04 00:04:06;;;;;;;25.65;16.45;;;8.10;99.90;;;;;;5114024;28;20438;-44
2023/03/04 00:06:32;;;;;;;29.17;16.33;;;8.30;99.90;;;;;;5113607;28;20533;-44
2023/03/04 00:08:57;;;;;;;27.55;16.35;;;8.60;99.90;;;;;;5114087;28;20098;-45
2023/03/04 00:11:23;;;;;;;27.17;16.27;;;8.60;99.90;;;;;;5113949;28;20609;-46
2023/03/04 00:13:49;;;;;;;25.65;15.75;;;8.60;99.90;;;;;;5113913;28;20028;-47
2023/03/04 00:16:15;;;;;;;25.38;16.60;;;8.50;99.90;;;;;;5112139;28;20503;-44
2023/03/04 00:18:41;;;;;;;24.75;15.75;;;8.40;99.90;;;;;;5113686;28;20024;-43
2023/03/04 00:21:06;;;;;;;25.73;15.82;;;8.40;99.90;;;;;;5112326;28;20024;-44
2023/03/04 00:23:32;;;;;;;25.98;16.13;;;8.30;99.90;;;;;;5113460;28;20475;-44
2023/03/04 00:25:57;;;;;;;29.88;16.15;;;8.20;99.90;;;;;;5113314;28;20020;-46
2023/03/04 00:28:23;;;;;;;22.10;14.63;;;8.20;99.90;;;;;;5113368;28;20016;-48
2023/03/04 00:30:49;;;;;;;28.65;15.98;;;8.10;99.90;;;;;;5113357;28;20023;-43
2023/03/04 00:33:14;;;;;;;26.20;16.13;;;8.10;99.90;;;;;;5113249;28;20020;-44
2023/03/04 00:35:40;;;;;;;26.38;16.10;;;8.10;99.90;;;;;;5113195;27;20020;-47
2023/03/04 00:38:06;;;;;;;26.42;15.35;;;8.10;99.90;;;;;;5112978;28;20103;-46
2023/03/04 00:40:32;;;;;;;27.40;16.42;;;8.10;99.90;;;;;;5113257;28;20092;-43
2023/03/04 00:42:57;;;;;;;30.92;16.42;;;8.10;99.90;;;;;;5112970;28;20135;-48
2023/03/04 00:45:23;;;;;;;24.55;15.48;;;8.10;99.90;;;;;;5113293;28;20035;-47
2023/03/04 00:47:48;;;;;;;27.75;16.05;;;8.00;99.90;;;;;;5112830;28;20431;-45
2023/03/04 00:50:15;;;;;;;31.02;16.27;;;8.10;99.90;;;;;;5112973;28;20106;-43
2023/03/04 00:52:40;;;;;;;27.60;15.45;;;8.00;99.90;;;;;;5112835;28;20645;-46
2023/03/04 00:55:07;;;;;;;28.13;17.52;;;8.00;99.90;;;;;;5113041;28;20036;-44
2023/03/04 00:57:33;;;;;;;30.25;16.23;;;8.00;99.90;;;;;;5112603;28;20027;-43
2023/03/04 00:59:59;;;;;;;25.75;15.30;;;8.00;99.90;;;;;;5112671;28;20059;-45
2023/03/04 01:02:25;;;;;;;26.10;14.95;;;8.00;99.90;;;;;;5112589;28;20058;-44
2023/03/04 01:04:50;;;;;;;20.88;13.65;;;8.00;99.90;;;;;;5113136;28;20027;-48
2023/03/04 01:07:16;;;;;;;25.35;14.95;;;8.30;99.90;;;;;;5111991;28;20024;-48
2023/03/04 01:09:42;;;;;;;24.33;15.65;;;8.60;99.90;;;;;;5112754;28;20031;-44
2023/03/04 01:12:07;;;;;;;26.38;15.57;;;8.50;99.90;;;;;;5112491;28;20115;-45
2023/03/04 01:14:33;;;;;;;28.98;16.52;;;8.50;99.90;;;;;;5113241;28;20060;-47
2023/03/04 01:16:59;;;;;;;29.88;16.52;;;8.40;99.90;;;;;;5112257;28;20063;-43
2023/03/04 01:19:24;;;;;;;26.48;16.40;;;8.30;99.90;;;;;;5112489;28;20028;-44
2023/03/04 01:21:50;;;;;;;26.35;15.43;;;8.20;99.90;;;;;;5112104;28;20026;-47
2023/03/04 01:24:16;;;;;;;27.80;16.20;;;8.10;99.90;;;;;;5112505;28;20495;-46
2023/03/04 01:26:41;;;;;;;28.38;15.73;;;8.10;99.90;;;;;;5112020;28;20023;-47
2023/03/04 01:29:07;;;;;;;24.77;15.18;;;8.10;99.90;;;;;;5112562;28;20058;-47
2023/03/04 01:31:32;;;;;;;25.52;15.30;;;8.00;99.90;;;;;;5112214;28;20394;-47
2023/03/04 01:33:58;;;;;;;29.20;16.25;;;8.00;99.90;;;;;;5110841;28;20039;-45
2023/03/04 01:36:24;;;;;;;23.25;14.98;;;8.00;99.90;;;;;;5111742;28;20027;-45
2023/03/04 01:38:49;;;;;;;25.17;15.10;;;8.00;99.90;;;;;;5112127;28;20032;-48
2023/03/04 01:41:17;;;;;;;24.13;14.85;;;8.00;99.90;;;;;;5111953;28;20036;-43
2023/03/04 01:43:44;;;;;;;26.88;15.57;;;8.00;99.90;;;;;;5112071;28;20469;-45
2023/03/04 01:46:11;;;;;;;29.02;15.88;;;8.00;99.90;;;;;;5111884;28;20026;-44
2023/03/04 01:48:38;;;;;;;25.27;15.55;;;8.00;99.90;;;;;;5112011;28;20016;-45
2023/03/04 01:51:09;;;;;;;25.98;15.77;;;7.90;99.90;;;;;;5111774;28;20034;-44
2023/03/04 01:53:35;;;;;;;23.90;15.35;;;7.90;99.90;;;;;;5111937;28;20374;-46
2023/03/04 01:56:10;;;;;;;27.85;17.10;;;7.90;99.90;;;;;;5111726;28;20548;-43
2023/03/04 01:58:36;;;;;;;27.55;16.25;;;7.90;99.90;;;;;;5111861;28;20072;-43
2023/03/04 02:01:01;;;;;;;26.38;15.40;;;7.90;99.90;;;;;;5111636;28;20436;-45
2023/03/04 02:03:27;;;;;;;24.63;15.20;;;7.90;99.90;;;;;;5111612;28;20546;-47
2023/03/04 02:05:54;;;;;;;23.23;14.13;;;8.10;99.90;;;;;;5111727;28;20019;-47
2023/03/04 02:08:22;;;;;;;24.25;14.52;;;8.40;99.90;;;;;;5111737;28;20066;-47
2023/03/04 02:10:48;;;;;;;25.33;15.02;;;8.50;99.90;;;;;;5111765;28;20074;-46
2023/03/04 02:13:15;;;;;;;25.17;15.05;;;8.40;99.90;;;;;;5112053;28;20031;-47
2023/03/04 02:15:42;;;;;;;24.98;14.43;;;8.40;99.90;;;;;;5112102;28;20072;-46
2023/03/04 02:18:23;;;;;;;25.65;15.75;;;8.30;99.90;;;;;;5112718;28;20073;-44
2023/03/04 02:20:55;;;;;;;23.50;14.02;;;8.20;99.90;;;;;;5116223;28;20023;-43
2023/03/04 02:23:35;;;;;;;27.20;14.68;;;8.10;99.90;;;;;;5116054;28;20035;-43
2023/03/04 02:26:17;;;;;;;27.33;15.35;;;8.10;99.90;;;;;;5115754;27;20441;-43
2023/03/04 02:28:43;;;;;;;23.05;14.52;;;8.00;99.90;;;;;;5115841;28;20051;-46
2023/03/04 02:31:21;;;;;;;25.95;15.45;;;7.90;99.90;;;;;;5115977;28;20019;-46
2023/03/04 02:33:47;;;;;;;24.30;14.70;;;7.90;99.90;;;;;;5115686;28;20465;-44
2023/03/04 02:36:12;;;;;;;24.98;15.50;;;7.90;99.90;;;;;;5116042;27;20058;-43
2023/03/04 02:38:38;;;;;;;23.13;13.88;;;7.90;99.90;;;;;;5116039;28;20103;-44
2023/03/04 02:41:05;;;;;;;24.73;14.15;;;7.90;99.90;;;;;;5115530;28;20047;-43
2023/03/04 02:43:31;;;;;;;27.75;16.05;;;7.80;99.90;;;;;;5115652;28;20030;-47
2023/03/04 02:45:56;;;;;;;31.23;15.88;;;7.80;99.90;;;;;;5115208;28;20016;-43
2023/03/04 02:48:23;;;;;;;25.50;15.27;;;7.80;99.90;;;;;;5115312;27;20024;-48
2023/03/04 02:50:53;;;;;;;26.63;15.50;;;7.80;99.90;;;;;;5114005;28;20019;-47
2023/03/04 02:53:19;;;;;;;26.92;15.52;;;7.80;99.90;;;;;;5115107;28;20486;-43
2023/03/04 02:55:46;;;;;;;26.92;15.18;;;7.80;99.90;;;;;;5115013;28;20541;-46
2023/03/04 02:58:11;;;;;;;24.60;14.52;;;7.70;99.90;;;;;;5115116;28;20053;-46
2023/03/04 03:00:38;;;;;;;27.33;15.55;;;7.70;99.90;;;;;;5115068;28;20032;-46
2023/03/04 03:03:04;;;;;;;23.40;14.05;;;7.70;99.90;;;;;;5114939;27;20614;-46
2023/03/04 03:05:31;;;;;;;22.38;13.68;;;7.90;99.90;;;;;;5114942;28;20016;-47
2023/03/04 03:07:57;;;;;;;25.10;14.98;;;8.20;99.90;;;;;;5114757;28;20015;-46
2023/03/04 03:10:23;;;;;;;25.88;14.93;;;8.50;99.90;;;;;;5115047;28;20076;-46
2023/03/04 03:12:49;;;;;;;22.95;14.10;;;8.40;99.90;;;;;;5114917;28;20069;-47
2023/03/04 03:15:15;;;;;;;25.25;13.90;;;8.40;99.90;;;;;;5114925;28;20048;-47
2023/03/04 03:17:41;;;;;;;26.30;15.10;;;8.30;99.90;;;;;;5115183;28;20541;-46
2023/03/04 03:20:08;;;;;;;27.05;14.52;;;8.20;99.90;;;;;;5115026;28;20036;-45
2023/03/04 03:22:34;;;;;;;25.08;14.25;;;8.10;99.90;;;;;;5114307;28;20023;-46
2023/03/04 03:24:59;;;;;;;24.95;15.18;;;8.00;99.90;;;;;;5114650;28;20030;-47
2023/03/04 03:27:25;;;;;;;23.85;15.18;;;8.00;99.90;;;;;;5114380;28;20031;-46
2023/03/04 03:29:50;;;;;;;26.35;14.52;;;7.90;99.90;;;;;;5113399;28;20080;-47
2023/03/04 03:32:16;;;;;;;24.10;14.10;;;7.80;99.90;;;;;;5114473;28;20143;-46
2023/03/04 03:34:42;;;;;;;24.30;14.18;;;7.80;99.90;;;;;;5114528;28;20028;-46
2023/03/04 03:37:07;;;;;;;23.50;14.13;;;7.80;99.90;;;;;;5114037;28;20031;-46
2023/03/04 03:39:33;;;;;;;23.42;14.30;;;7.80;99.90;;;;;;5114391;28;20023;-45
2023/03/04 03:41:59;;;;;;;27.00;15.18;;;7.80;99.90;;;;;;5114279;28;20429;-43
2023/03/04 03:44:24;;;;;;;24.38;14.48;;;7.80;99.90;;;;;;5114607;28;20027;-46
2023/03/04 03:46:50;;;;;;;23.63;14.45;;;7.80;99.90;;;;;;5114386;28;20020;-47
2023/03/04 03:49:16;;;;;;;24.95;14.70;;;7.80;99.90;;;;;;5114174;28;20145;-44
2023/03/04 03:51:42;;;;;;;24.20;15.15;;;7.70;99.90;;;;;;5113976;28;20035;-47
2023/03/04 03:54:08;;;;;;;26.98;15.02;;;7.70;99.90;;;;;;5114442;28;20047;-45
2023/03/04 03:56:33;;;;;;;24.98;14.98;;;7.70;99.90;;;;;;5114125;28;20024;-43
2023/03/04 03:58:59;;;;;;;24.10;14.82;;;7.70;99.90;;;;;;5113917;28;20542;-43
2023/03/04 04:01:25;;;;;;;27.65;15.05;;;7.70;99.90;;;;;;5113824;28;20038;-45
2023/03/04 04:03:50;;;;;;;24.63;14.55;;;7.70;99.90;;;;;;5113977;28;20028;-44
2023/03/04 04:06:16;;;;;;;25.15;14.20;;;7.90;99.90;;;;;;5113986;28;20043;-46
2023/03/04 04:08:42;;;;;;;22.95;13.48;;;8.20;99.90;;;;;;5112943;28;20028;-46
2023/03/04 04:11:12;;;;;;;22.92;13.73;;;8.40;99.90;;;;;;5114232;28;20497;-46
2023/03/04 04:13:37;;;;;;;24.88;14.98;;;8.30;99.90;;;;;;5114461;28;20047;-46
2023/03/04 04:16:03;;;;;;;22.52;13.70;;;8.20;99.90;;;;;;5113375;28;20063;-44
2023/03/04 04:18:29;;;;;;;23.38;14.07;;;8.10;99.90;;;;;;5113692;27;20051;-46
2023/03/04 04:20:55;;;;;;;26.95;13.73;;;8.10;99.90;;;;;;5114029;28;20074;-47
2023/03/04 04:23:20;;;;;;;25.58;14.05;;;8.00;99.90;;;;;;5113943;28;20550;-47
2023/03/04 04:25:46;;;;;;;24.30;14.10;;;7.90;99.90;;;;;;5113187;28;20072;-47
2023/03/04 04:28:12;;;;;;;26.02;15.05;;;7.80;99.90;;;;;;5113522;28;20020;-43
2023/03/04 04:30:38;;;;;;;24.05;14.70;;;7.80;99.90;;;;;;5113466;28;20036;-44
2023/03/04 04:33:03;;;;;;;24.52;14.73;;;7.70;99.90;;;;;;5113304;28;20032;-48
2023/03/04 04:35:34;;;;;;;25.30;14.57;;;7.70;99.90;;;;;;5113125;28;20027;-44
2023/03/04 04:38:00;;;;;;;26.60;15.23;;;7.70;99.90;;;;;;5113490;28;20034;-44
2023/03/04 04:40:26;;;;;;;24.10;14.35;;;7.70;99.90;;;;;;5113192;28;20381;-45
2023/03/04 04:42:51;;;;;;;26.35;14.88;;;7.70;99.90;;;;;;5112785;28;20027;-45
2023/03/04 04:45:17;;;;;;;21.45;13.63;;;7.70;99.90;;;;;;5113053;28;20032;-43
2023/03/04 04:47:43;;;;;;;25.58;14.35;;;7.70;99.90;;;;;;5112864;28;20016;-43
2023/03/04 04:50:09;;;;;;;22.15;12.90;;;7.60;99.90;;;;;;5112763;28;20031;-43
2023/03/04 04:52:35;;;;;;;26.05;14.85;;;7.60;99.90;;;;;;5112632;28;20028;-46
2023/03/04 04:55:01;;;;;;;27.45;14.55;;;7.60;99.90;;;;;;5112926;28;20073;-46
2023/03/04 04:57:26;;;;;;;23.92;13.35;;;7.60;99.90;;;;;;5112639;28;20078;-47
2023/03/04 04:59:52;;;;;;;26.00;14.80;;;7.60;99.90;;;;;;5112638;28;20032;-45
2023/03/04 05:02:17;;;;;;;23.55;14.48;;;7.60;99.90;;;;;;5112943;28;20027;-46
2023/03/04 05:04:43;;;;;;;24.50;14.57;;;7.60;99.90;;;;;;5112916;28;20016;-47
2023/03/04 05:07:09;;;;;;;25.67;13.52;;;7.90;99.90;;;;;;5112958;28;20031;-46
2023/03/04 05:09:34;;;;;;;24.13;13.40;;;8.20;99.90;;;;;;5113171;28;20023;-46
2023/03/04 05:12:00;;;;;;;23.95;14.10;;;8.20;99.90;;;;;;5112523;28;20035;-47
2023/03/04 05:14:25;;;;;;;22.15;12.98;;;8.20;99.90;;;;;;5113025;28;20035;-47
2023/03/04 05:16:51;;;;;;;24.13;14.35;;;8.10;99.90;;;;;;5112114;28;20028;-45
2023/03/04 05:19:18;;;;;;;24.55;13.98;;;8.00;99.90;;;;;;5112481;27;20024;-46
2023/03/04 05:21:44;;;;;;;24.80;13.93;;;7.90;99.90;;;;;;5112306;28;20028;-47
2023/03/04 05:24:09;;;;;;;23.73;13.57;;;7.80;99.90;;;;;;5112660;28;20026;-46
2023/03/04 05:26:35;;;;;;;23.45;14.23;;;7.70;99.90;;;;;;5112453;28;20024;-46
2023/03/04 05:29:01;;;;;;;22.73;13.55;;;7.70;99.90;;;;;;5112275;28;20393;-47
2023/03/04 05:31:27;;;;;;;23.35;13.80;;;7.60;99.90;;;;;;5112041;28;20024;-46
2023/03/04 05:33:52;;;;;;;22.02;13.02;;;7.60;99.90;;;;;;5112198;28;20051;-46
2023/03/04 05:36:18;;;;;;;24.13;14.70;;;7.60;99.90;;;;;;5111919;28;20028;-46
2023/03/04 05:38:44;;;;;;;21.75;13.85;;;7.60;99.90;;;;;;5112075;28;20034;-46
2023/03/04 05:41:09;;;;;;;22.88;14.10;;;7.60;99.90;;;;;;5111851;28;20025;-46
2023/03/04 05:43:37;;;;;;;22.13;14.25;;;7.50;99.90;;;;;;5112036;28;20016;-47
2023/03/04 05:46:03;;;;;;;21.60;13.27;;;7.50;99.90;;;;;;5111670;28;20438;-46
2023/03/04 05:48:29;;;;;;;24.42;14.57;;;7.50;99.90;;;;;;5110609;28;20062;-46
2023/03/04 05:50:56;;;;;;;23.65;14.63;;;7.50;99.90;;;;;;5111917;28;20059;-47
2023/03/04 05:53:22;;;;;;;23.08;13.77;;;7.50;99.90;;;;;;5110978;28;20430;-46
2023/03/04 05:55:48;;;;;;;23.27;13.88;;;7.50;99.90;;;;;;5111659;28;20543;-46
2023/03/04 05:58:14;;;;;;;24.77;14.27;;;7.50;99.90;;;;;;5112001;28;20027;-47
2023/03/04 06:00:40;;;;;;;24.27;14.35;;;7.50;99.90;;;;;;5110397;28;20413;-43
2023/03/04 06:03:06;;;;;;;22.30;13.15;;;7.50;99.90;;;;;;5111975;28;20486;-47
2023/03/04 06:05:32;;;;;;;23.70;13.57;;;7.60;99.90;;;;;;5111758;28;20054;-43
2023/03/04 06:07:57;;;;;;;23.40;13.63;;;7.90;99.90;;;;;;5111693;28;20016;-44
2023/03/04 06:10:23;;;;;;;25.52;13.95;;;8.10;99.90;;;;;;5111801;28;20019;-44
2023/03/04 06:12:48;;;;;;;21.40;12.93;;;8.10;99.90;;;;;;5111902;28;20106;-43
2023/03/04 06:15:14;;;;;;;22.67;13.15;;;8.00;99.90;;;;;;5111893;28;20035;-45
2023/03/04 06:17:41;;;;;;;23.75;14.30;;;7.90;99.90;;;;;;5111649;28;20031;-43
2023/03/04 06:20:07;;;;;;;23.02;14.23;;;7.80;99.90;;;;;;5112002;28;20032;-43
2023/03/04 06:22:34;;;;;;;22.48;13.48;;;7.70;99.90;;;;;;5112884;28;20048;-46
2023/03/04 06:25:00;;;;;;;20.70;12.82;;;7.70;99.90;;;;;;5111507;28;20349;-45
2023/03/04 06:27:26;;;;;;;24.15;13.65;;;7.60;99.90;;;;;;5111221;28;20114;-47
2023/03/04 06:29:52;;;;;;;23.63;13.40;;;7.50;99.90;;;;;;5111646;28;20129;-45
2023/03/04 06:32:17;;;;;;;23.15;13.43;;;7.50;99.90;;;;;;5111683;28;20052;-45
2023/03/04 06:34:43;;;;;;;23.52;13.35;;;7.50;99.90;;;;;;5111531;28;20098;-47
2023/03/04 06:37:09;;;;;;;21.05;13.40;;;7.50;99.90;;;;;;5111192;28;20492;-46
2023/03/04 06:39:35;;;;;;;24.40;13.98;;;7.50;99.90;;;;;;5111389;28;20023;-46
2023/03/04 06:42:01;;;;;;;22.92;13.35;;;7.50;99.90;;;;;;5111585;28;20056;-46
2023/03/04 06:44:26;;;;;;;24.05;13.90;;;7.50;99.90;;;;;;5111464;28;20108;-47
2023/03/04 06:46:52;;;;;;;21.92;13.32;;;7.50;99.90;;;;;;5112245;28;20024;-46
2023/03/04 06:49:17;;;;;;;21.77;12.77;;;7.40;99.90;;;;;;5111553;28;20069;-48
2023/03/04 06:51:43;;;;;;;25.00;13.93;;;7.40;99.90;;;;;;5111304;28;20030;-48
2023/03/04 06:54:09;;;;;;;21.17;12.48;;;7.40;99.90;;;;;;5111174;28;20059;-48
2023/03/04 06:56:35;;;;;;;21.30;13.10;;;7.40;99.90;;;;;;5111476;28;20112;-47
2023/03/04 06:59:00;;;;;;;23.20;13.27;;;7.40;99.90;;;;;;5111755;28;20027;-46
2023/03/04 07:01:28;;;;;;;22.95;13.57;;;7.40;99.90;;;;;;5112036;28;20353;-48
2023/03/04 07:03:54;;;;;;;22.60;13.38;;;7.40;99.90;;;;;;5111692;28;20024;-43
2023/03/04 07:06:23;;;;;;;23.27;12.48;;;7.70;99.90;;;;;;5114878;28;20028;-43
2023/03/04 07:08:49;;;;;;;23.77;13.35;;;8.00;99.90;;;;;;5115329;28;20039;-46
2023/03/04 07:11:16;;;;;;;22.88;13.13;;;8.10;99.90;;;;;;5114873;28;20030;-43
2023/03/04 07:13:41;;;;;;;22.95;13.40;;;8.10;99.90;;;;;;5115161;28;20038;-46
2023/03/04 07:16:14;;;;;;;24.10;14.52;;;8.00;99.90;;;;;;5115001;28;20049;-46
2023/03/04 07:18:40;;;;;;;24.60;13.20;;;7.90;99.90;;;;;;5113798;28;20107;-43
2023/03/04 07:21:06;;;;;;;21.33;12.68;;;7.90;99.90;;;;;;5114847;28;20051;-46
2023/03/04 07:23:33;;;;;;;21.55;12.57;;;7.80;99.90;;;;;;5114934;28;20024;-46
2023/03/04 07:25:59;;;;;;;22.25;12.88;;;7.80;99.90;;;;;;5114720;28;20103;-46
2023/03/04 07:28:26;;;;;;;20.30;12.50;;;7.70;99.90;;;;;;5114705;28;20106;-46
2023/03/04 07:30:51;;;;;;;23.55;12.55;;;7.70;99.90;;;;;;5114643;28;20059;-46
2023/03/04 07:33:17;;;;;;;23.55;13.40;;;7.70;99.90;;;;;;5114491;28;20051;-47
2023/03/04 07:35:42;;;;;;;21.00;12.95;;;7.70;99.90;;;;;;5114341;28;20047;-46
2023/03/04 07:38:08;;;;;;;21.38;12.90;;;7.70;99.90;;;;;;5114388;28;20531;-46
2023/03/04 07:40:34;;;;;;;20.13;12.07;;;7.70;99.90;;;;;;5114434;28;20075;-45
2023/03/04 07:43:00;;;;;;;23.25;13.65;;;7.70;99.90;;;;;;5114237;28;20157;-47
2023/03/04 07:45:26;;;;;;;22.10;13.32;;;7.70;99.90;;;;;;5114313;28;20393;-46
2023/03/04 07:47:53;;;;;;;19.95;12.52;;;7.70;99.90;;;;;;5114619;28;20465;-46
2023/03/04 07:50:18;;;;;;;20.50;12.80;;;7.70;99.90;;;;;;5112855;28;20024;-46
2023/03/04 07:52:46;;;;;;;20.20;12.18;;;7.70;99.90;;;;;;5113988;28;20083;-47
2023/03/04 07:55:14;;;;;;;20.42;12.35;;;7.70;99.90;;;;;;5114164;27;20024;-47
2023/03/04 07:57:44;;;;;;;21.17;12.70;;;7.70;99.90;;;;;;5114277;28;20032;-46
2023/03/04 08:00:13;;;;;;;21.00;12.20;;;7.70;99.90;;;;;;5114033;28;20035;-46
2023/03/04 08:02:39;;;;;;;21.55;12.70;;;7.70;99.90;;;;;;5113781;28;20377;-46
2023/03/04 08:05:05;;;;;;;20.30;12.18;;;7.70;99.90;;;;;;5113972;28;20020;-47
2023/03/04 08:07:30;;;;;;;20.45;12.52;;;7.70;99.90;;;;;;5113807;28;20118;-46
2023/03/04 08:09:56;;;;;;;22.13;12.20;;;7.70;99.90;;;;;;5113948;28;20024;-46
2023/03/04 08:12:23;;;;;;;23.23;12.35;;;7.60;99.90;;;;;;5113727;28;20023;-47
2023/03/04 08:14:50;;;;;;;19.88;12.18;;;7.60;99.90;;;;;;5113792;28;20024;-47
2023/03/04 08:17:15;;;;;;;18.60;11.88;;;7.60;99.90;;;;;;5112999;28;20031;-46
2023/03/04 08:19:41;;;;;;;21.30;12.10;;;7.60;99.90;;;;;;5113579;28;20530;-46
2023/03/04 08:22:06;;;;;;;18.80;11.15;;;7.60;99.90;;;;;;5113794;28;20508;-46
2023/03/04 08:24:32;;;;;;;19.55;12.15;;;7.60;99.90;;;;;;5113576;28;20489;-46
2023/03/04 08:26:58;;;;;;;18.13;11.20;;;7.60;99.90;;;;;;5113640;28;20049;-45
2023/03/04 08:29:25;;;;;;;21.33;11.52;;;7.60;99.90;;;;;;5113538;27;20026;-46
2023/03/04 08:31:52;;;;;;;19.92;12.30;;;7.60;99.90;;;;;;5113497;28;20030;-47
2023/03/04 08:34:20;;;;;;;21.77;11.35;;;7.60;99.90;;;;;;5113360;28;20047;-46
2023/03/04 08:36:45;;;;;;;16.75;10.88;;;7.50;99.90;;;;;;5113378;28;20536;-46
2023/03/04 08:39:12;;;;;;;17.80;11.13;;;7.50;99.90;;;;;;5113363;28;20106;-47
2023/03/04 08:41:38;;;;;;;17.35;10.88;;;7.60;99.90;;;;;;5113091;28;20026;-46
2023/03/04 08:44:06;;;;;;;16.85;11.05;;;7.50;99.90;;;;;;5112190;28;20035;-48
2023/03/04 08:46:32;;;;;;;18.83;11.10;;;7.50;99.90;;;;;;5113073;28;20023;-46
2023/03/04 08:48:58;;;;;;;20.75;11.27;;;7.50;99.90;;;;;;5113082;28;20031;-46
2023/03/04 08:51:24;;;;;;;17.33;11.15;;;7.60;99.90;;;;;;5113079;28;20024;-47
2023/03/04 08:53:50;;;;;;;19.63;11.02;;;7.50;99.90;;;;;;5113083;28;20447;-46
2023/03/04 08:56:16;;;;;;;18.70;10.38;;;7.50;99.90;;;;;;5112763;28;20026;-47
2023/03/04 08:58:42;;;;;;;28.02;16.45;;;7.50;99.90;;;;;;5112811;28;20481;-44
2023/03/04 09:01:12;;;;;;;27.95;16.75;;;7.40;99.90;;;;;;5113348;28;20041;-44
2023/03/04 09:03:39;;;;;;;27.15;16.20;;;7.10;99.90;;;;;;5112906;28;20027;-44
2023/03/04 09:06:06;;;;;;;28.33;16.05;;;7.00;99.90;;;;;;5112856;28;20020;-44
2023/03/04 09:08:33;;;;;;;28.23;17.08;;;7.00;99.90;;;;;;5112974;28;20023;-44
2023/03/04 09:10:59;;;;;;;27.67;15.15;;;7.00;99.90;;;;;;5112998;28;20362;-44
2023/03/04 09:13:28;;;;;;;27.85;15.52;;;7.00;99.90;;;;;;5111382;28;20452;-43
2023/03/04 09:15:54;;;;;;;24.75;15.40;;;7.00;99.90;;;;;;5112495;28;20023;-43
2023/03/04 09:18:21;;;;;;;25.45;15.02;;;7.00;99.90;;;;;;5112729;28;20488;-43
2023/03/04 09:20:48;;;;;;;24.23;14.43;;;7.00;99.90;;;;;;5112493;28;20400;-43
2023/03/04 09:23:14;;;;;;;26.10;15.55;;;7.10;99.90;;;;;;5112393;28;20027;-43
2023/03/04 09:25:41;;;;;;;23.73;13.93;;;7.10;99.90;;;;;;5112419;28;20062;-44
2023/03/04 09:28:06;;;;;;;25.30;15.02;;;7.10;99.90;;;;;;5111391;28;20071;-44
2023/03/04 09:30:33;;;;;;;23.02;13.23;;;7.20;99.90;;;;;;5112231;28;20047;-43
2023/03/04 09:32:59;;;;;;;22.17;12.85;;;7.20;99.90;;;;;;5112220;28;20027;-43
2023/03/04 09:35:26;;;;;;;22.58;14.15;;;7.20;99.90;;;;;;5112155;27;20366;-43
2023/03/04 09:37:53;;;;;;;23.30;14.00;;;7.20;99.90;;;;;;5112037;28;20024;-44
2023/03/04 09:40:26;;;;;;;23.98;13.77;;;7.20;99.90;;;;;;5112154;28;20016;-44
2023/03/04 09:42:56;;;;;;;22.38;13.10;;;7.20;99.90;;;;;;5111877;28;20034;-44
2023/03/04 09:45:28;;;;;;;22.00;12.98;;;7.20;99.90;;;;;;5112016;28;20122;-44
2023/03/04 09:47:55;;;;;;;23.38;13.80;;;7.20;99.90;;;;;;5111934;28;20026;-44
2023/03/04 09:50:21;;;;;;;19.55;12.40;;;7.20;99.90;;;;;;5112084;28;20024;-44
2023/03/04 09:53:02;;;;;;;21.27;12.75;;;7.30;99.90;;;;;;5111886;28;20035;-44
2023/03/04 09:55:38;;;;;;;20.88;12.02;;;7.30;99.90;;;;;;5112413;28;20020;-44
2023/03/04 09:58:35;;;;;;;20.52;12.05;;;7.30;99.90;;;;;;5111848;28;20030;-44
2023/03/04 10:01:09;;;;;;;20.20;12.23;;;7.30;99.90;;;;;;5113599;28;20066;-44
2023/03/04 10:03:53;;;;;;;;;;;7.30;99.90;;;;;;5112327;28;20462;-43
2023/03/04 10:06:21;;;;;;;20.88;12.50;;;7.30;99.90;;;;;;5111555;28;19904;-44
2023/03/04 10:09:03;;;;;;;20.75;12.00;;;7.30;99.90;;;;;;5111995;28;20144;-44
2023/03/04 10:11:48;;;;;;;21.02;11.85;;;7.30;99.90;;;;;;5111716;28;20023;-44
2023/03/04 10:14:22;;;;;;;20.55;11.63;;;7.30;99.90;;;;;;5111726;28;20423;-44
2023/03/04 10:16:52;;;;;;;23.92;12.05;;;7.30;99.90;;;;;;5111680;28;20028;-44
2023/03/04 10:19:26;;;;;;;19.63;11.52;;;7.30;99.90;;;;;;5110395;28;20065;-46
2023/03/04 10:21:52;;;;;;;17.90;11.00;;;7.30;99.90;;;;;;5111665;28;20065;-46
2023/03/04 10:24:26;;;;;;;19.60;12.38;;;7.30;99.90;;;;;;5111633;28;20036;-45
2023/03/04 10:26:56;;;;;;;17.55;10.98;;;7.30;99.90;;;;;;5111283;28;20482;-46
2023/03/04 10:29:23;;;;;;;20.77;11.23;;;7.40;99.90;;;;;;5111835;28;20459;-46
2023/03/04 10:31:50;;;;;;;40.08;22.25;;;7.40;99.90;;;;;;5111780;28;20393;-46
2023/03/04 10:34:16;;;;;;;45.97;22.17;;;7.20;99.90;;;;;;5111680;28;20016;-46
2023/03/04 10:37:04;;;;;;;41.97;22.88;;;7.00;99.90;;;;;;5111285;28;20027;-45
2023/03/04 10:39:46;;;;;;;35.88;20.35;;;7.00;99.90;;;;;;5112778;28;20389;-46
2023/03/04 10:42:15;;;;;;;37.13;21.52;;;7.10;99.90;;;;;;5115411;28;20493;-46
2023/03/04 10:44:42;;;;;;;32.55;19.85;;;7.00;99.90;;;;;;5114241;28;20099;-46
2023/03/04 10:47:10;;;;;;;36.60;20.42;;;7.10;99.90;;;;;;5115317;28;20031;-46
2023/03/04 10:49:50;;;;;;;35.88;20.77;;;7.10;99.90;;;;;;5115277;28;20031;-46
2023/03/04 10:52:37;;;;;;;32.03;19.05;;;7.10;99.90;;;;;;5115538;28;20508;-45
2023/03/04 10:55:15;;;;;;;35.47;20.08;;;7.10;99.90;;;;;;5115808;27;20395;-46
2023/03/04 10:57:43;;;;;;;33.78;19.48;;;7.20;99.90;;;;;;5115199;28;20052;-46
2023/03/04 11:00:44;;;;;;;32.13;19.23;;;7.20;99.90;;;;;;5115279;28;20028;-45
2023/03/04 11:03:31;;;;;;;38.40;19.02;;;7.20;99.90;;;;;;5113120;28;20040;-46
2023/03/04 11:06:13;;;;;;;34.22;19.42;;;7.20;99.90;;;;;;5113566;28;20023;-46
2023/03/04 11:08:40;;;;;;;31.65;18.30;;;7.30;99.90;;;;;;5115014;28;20020;-46
2023/03/04 11:11:26;;;;;;;32.80;17.98;;;7.30;99.90;;;;;;5115074;28;20027;-46
2023/03/04 11:13:58;;;;;;;27.73;17.13;;;7.30;99.90;;;;;;5115093;28;20489;-46
2023/03/04 11:16:28;;;;;;;27.90;16.77;;;7.30;99.90;;;;;;5114762;28;20028;-46
2023/03/04 11:18:59;;;;;;;27.02;17.40;;;7.30;99.90;;;;;;5114816;28;20029;-46
2023/03/04 11:21:29;;;;;;;29.50;17.50;;;7.30;99.90;;;;;;5114718;28;20016;-45
2023/03/04 11:24:14;;;;;;;25.05;16.40;;;7.40;99.90;;;;;;5114887;28;20019;-45
2023/03/04 11:26:48;;;;;;;29.00;17.33;;;7.40;99.90;;;;;;5114694;28;20076;-45
2023/03/04 11:29:42;;;;;;;39.25;24.92;;;7.40;99.90;;;;;;5106597;28;20539;-45
2023/03/04 11:32:19;;;;;;;40.92;24.13;;;7.30;99.90;;;;;;5105168;27;20036;-45
2023/03/04 11:35:05;;;;;;;40.05;24.17;;;7.20;99.90;;;;;;5106099;28;20292;-44
2023/03/04 11:37:53;;;;;;;38.78;24.00;;;7.20;99.90;;;;;;5114083;28;20028;-44
2023/03/04 11:40:38;;;;;;;35.50;23.45;;;7.30;99.90;;;;;;5114463;28;20110;-42
2023/03/04 11:43:35;;;;;;;38.80;23.30;;;7.20;99.90;;;;;;5114349;28;20029;-42
2023/03/04 11:46:04;;;;;;;34.75;22.42;;;7.30;99.90;;;;;;5114079;28;20529;-43
2023/03/04 11:48:44;;;;;;;35.83;22.50;;;7.30;99.90;;;;;;5114988;28;20035;-42
2023/03/04 11:51:36;;;;;;;36.05;21.65;;;7.40;99.90;;;;;;5113862;28;20080;-42
2023/03/04 11:54:14;;;;;;;34.75;21.20;;;7.30;99.90;;;;;;5115206;28;20477;-43
2023/03/04 11:56:59;;;;;;;31.88;20.00;;;7.40;99.90;;;;;;5114267;28;20385;-42
2023/03/04 11:59:53;;;;;;;30.90;19.60;;;7.80;99.90;;;;;;5114468;28;20020;-40
2023/03/04 12:02:29;;;;;;;31.27;19.10;;;8.20;99.90;;;;;;5113956;28;20112;-42
2023/03/04 12:04:55;;;;;;;30.75;19.23;;;8.20;99.90;;;;;;5114088;28;20568;-41
2023/03/04 12:07:53;;;;;;;33.10;19.20;;;8.20;99.90;;;;;;5113932;28;20098;-43
2023/03/04 12:10:43;;;;;;;27.92;17.65;;;8.10;99.90;;;;;;5114369;28;20024;-41
2023/03/04 12:13:35;;;;;;;27.23;16.73;;;8.10;99.90;;;;;;5113748;28;20034;-42
2023/03/04 12:16:26;;;;;;;25.52;16.88;;;8.00;99.90;;;;;;5113943;28;20068;-45
2023/03/04 12:19:04;;;;;;;26.23;16.63;;;8.00;99.90;;;;;;5114049;28;20106;-42
2023/03/04 12:21:52;;;;;;;28.48;16.85;;;7.90;99.90;;;;;;5113470;27;20028;-41
2023/03/04 12:24:35;;;;;;;26.67;16.25;;;7.80;99.90;;;;;;5112311;28;20012;-42
2023/03/04 12:27:07;;;;;;;26.30;16.73;;;7.90;99.90;;;;;;5113369;28;20016;-41
2023/03/04 12:29:55;;;;;;;24.85;16.17;;;7.80;99.90;;;;;;5113338;28;20012;-45
2023/03/04 12:32:47;;;;;;;25.50;15.70;;;7.80;99.90;;;;;;5113455;28;20328;-42
2023/03/04 12:35:13;;;;;;;25.42;15.27;;;8.00;99.90;;;;;;5113461;28;20042;-45
2023/03/04 12:38:09;;;;;;;24.58;14.95;;;8.30;99.90;;;;;;5113149;28;20024;-41
2023/03/04 12:41:02;;;;;;;23.70;14.55;;;8.30;99.90;;;;;;5113316;28;20115;-42
2023/03/04 12:43:51;;;;;;;23.08;14.38;;;8.30;99.90;;;;;;5113147;27;20031;-42
2023/03/04 12:46:34;;;;;;;22.05;13.65;;;8.20;99.90;;;;;;5112965;28;20045;-41
2023/03/04 12:49:27;;;;;;;25.38;14.13;;;8.20;99.90;;;;;;5113475;28;20020;-41